Time;durP1;ratioP1;P1;durP2;ratioP2;P2;SDS_P1;SDS_P2;PMS_P1;PMS_P2;Temp;Humidity;BMP_temperature;BMP_pressure;BME280_temperature;BME280_humidity;BME280_pressure;Samples;Min_cycle;Max_cycle;Signal;HPM_P1;HPM_P2
2022/12/07 00:01:23;;;;;;;;;;;26.40;78.30;;;;;;5055833;28;19909;-69
2022/12/07 00:03:50;;;;;;;;;;;26.50;79.00;;;;;;5055611;28;20229;-70
2022/12/07 00:06:17;;;;;;;;;;;26.50;79.40;;;;;;5055644;28;20304;-69
2022/12/07 00:08:44;;;;;;;;;;;26.50;79.20;;;;;;5055591;28;19909;-67
2022/12/07 00:11:12;;;;;;;;;;;26.60;79.40;;;;;;5055354;28;20025;-66
2022/12/07 00:13:39;;;;;;;;;;;26.60;77.30;;;;;;5053117;28;19932;-70
2022/12/07 00:16:07;;;;;;;;;;;26.80;78.10;;;;;;5036210;28;19955;-67
2022/12/07 00:18:34;;;;;;;;;;;27.00;75.80;;;;;;5046689;28;20586;-71
2022/12/07 00:21:01;;;;;;;;;;;27.10;75.60;;;;;;5046803;28;20011;-70
2022/12/07 00:23:28;;;;;;;;;;;27.20;74.80;;;;;;5056865;28;19999;-68
2022/12/07 00:25:55;;;;;;;;;;;27.30;75.10;;;;;;5046926;28;19966;-68
2022/12/07 00:28:21;;;;;;;;;;;27.20;74.00;;;;;;5041789;28;19913;-69
2022/12/07 00:30:48;;;;;;;;;;;27.30;83.00;;;;;;5036566;28;19920;-71
2022/12/07 00:33:15;;;;;;;;;;;27.50;84.70;;;;;;5035085;28;20097;-71
2022/12/07 00:35:41;;;;;;;;;;;27.50;84.40;;;;;;5038074;28;20280;-69
2022/12/07 00:38:08;;;;;;;;;;;27.40;80.90;;;;;;5036619;28;19913;-74
2022/12/07 00:40:34;;;;;;;;;;;27.50;77.80;;;;;;5058290;28;20328;-79
2022/12/07 00:43:01;;;;;;;;;;;27.80;81.50;;;;;;5055056;28;20638;-69
2022/12/07 00:45:28;;;;;;;;;;;28.20;82.70;;;;;;5058740;28;19909;-74
2022/12/07 00:47:54;;;;;;;;;;;28.40;82.70;;;;;;5056583;28;19908;-69
2022/12/07 00:50:21;;;;;;;;;;;28.20;80.10;;;;;;5035701;28;19963;-70
2022/12/07 00:52:48;;;;;;;;;;;28.30;73.00;;;;;;5038034;28;19982;-69
2022/12/07 00:55:14;;;;;;;;;;;28.70;69.20;;;;;;5034779;28;20392;-69
2022/12/07 00:57:41;;;;;;;;;;;29.10;72.10;;;;;;5037743;28;19909;-70
2022/12/07 01:00:08;;;;;;;;;;;29.10;77.80;;;;;;5053110;28;19920;-71
2022/12/07 01:02:34;;;;;;;;;;;28.90;79.40;;;;;;5056924;28;19944;-66
2022/12/07 01:05:01;;;;;;;;;;;28.60;76.20;;;;;;5053904;28;20350;-70
2022/12/07 01:07:28;;;;;;;;;;;28.20;71.10;;;;;;5055232;28;20059;-69
2022/12/07 01:09:54;;;;;;;;;;;28.10;74.40;;;;;;5056175;28;20054;-70
2022/12/07 01:12:21;;;;;;;;;;;28.00;79.60;;;;;;5055123;28;19924;-68
2022/12/07 01:14:47;;;;;;;;;;;27.80;81.60;;;;;;5058943;28;19915;-69
2022/12/07 01:17:14;;;;;;;;;;;27.50;82.90;;;;;;5057723;28;19909;-68
2022/12/07 01:19:41;;;;;;;;;;;27.30;83.40;;;;;;5058714;28;19917;-69
2022/12/07 01:22:07;;;;;;;;;;;27.20;83.50;;;;;;5058395;28;19954;-68
2022/12/07 01:24:34;;;;;;;;;;;27.10;84.60;;;;;;5058857;28;20782;-68
2022/12/07 01:27:01;;;;;;;;;;;27.00;84.50;;;;;;5060111;28;19908;-69
2022/12/07 01:29:27;;;;;;;;;;;26.90;85.40;;;;;;5057912;28;19920;-73
2022/12/07 01:31:54;;;;;;;;;;;26.80;84.40;;;;;;5060443;28;19908;-69
2022/12/07 01:34:20;;;;;;;;;;;26.70;86.10;;;;;;5057295;28;20312;-68
2022/12/07 01:36:47;;;;;;;;;;;26.70;89.70;;;;;;5060597;28;19998;-67
2022/12/07 01:39:14;;;;;;;;;;;26.80;90.20;;;;;;5058973;28;20330;-67
2022/12/07 01:41:43;;;;;;;;;;;26.70;90.60;;;;;;5054824;28;20549;-68
2022/12/07 01:44:17;;;;;;;;;;;26.60;90.90;;;;;;5058543;28;19908;-69
2022/12/07 01:46:46;;;;;;;;;;;26.50;90.30;;;;;;5058413;28;19953;-68
2022/12/07 01:49:31;;;;;;;;;;;26.30;90.60;;;;;;5058301;28;19909;-68
2022/12/07 01:52:13;;;;;;;;;;;26.30;90.80;;;;;;5039499;28;19919;-68
2022/12/07 01:54:41;;;;;;;;;;;26.20;90.90;;;;;;5037485;28;19916;-69
2022/12/07 01:57:08;;;;;;;;;;;26.10;90.90;;;;;;5038842;28;20368;-68
2022/12/07 01:59:35;;;;;;;;;;;26.10;90.80;;;;;;5040738;28;19927;-69
2022/12/07 02:02:04;;;;;;;;;;;26.00;91.20;;;;;;5058244;28;19940;-70
2022/12/07 02:04:30;;;;;;;;;;;26.00;90.90;;;;;;5058454;28;19908;-71
2022/12/07 02:06:58;;;;;;;;;;;26.10;90.30;;;;;;5056969;28;20371;-69
2022/12/07 02:09:24;;;;;;;;;;;26.40;85.00;;;;;;5058129;28;19991;-69
2022/12/07 02:11:51;;;;;;;;;;;26.50;81.50;;;;;;5057892;28;19916;-69
2022/12/07 02:14:18;;;;;;;;;;;26.80;85.10;;;;;;5058526;28;19909;-68
2022/12/07 02:16:54;;;;;;;;;;;26.90;89.30;;;;;;5056625;28;20003;-72
2022/12/07 02:19:39;;;;;;;;;;;27.10;89.60;;;;;;5058256;28;19921;-74
2022/12/07 02:22:24;;;;;;;;;;;27.20;89.60;;;;;;5058387;28;19912;-70
2022/12/07 02:25:03;;;;;;;;;;;27.30;89.40;;;;;;5055267;28;20300;-68
2022/12/07 02:27:35;;;;;;;;;;;27.40;86.90;;;;;;5057036;28;19919;-68
2022/12/07 02:30:02;;;;;;;;;;;27.60;86.10;;;;;;5056638;28;19908;-73
2022/12/07 02:32:34;;;;;;;;;;;27.80;88.60;;;;;;5057703;28;19916;-72
2022/12/07 02:35:01;;;;;;;;;;;27.80;88.20;;;;;;5056448;28;19995;-74
2022/12/07 02:37:41;;;;;;;;;;;27.80;88.40;;;;;;5057799;28;19916;-70
2022/12/07 02:40:11;;;;;;;;;;;27.60;88.40;;;;;;5056786;28;19977;-70
2022/12/07 02:42:40;;;;;;;;;;;27.50;88.50;;;;;;5057412;28;19912;-72
2022/12/07 02:45:09;;;;;;;;;;;27.40;88.30;;;;;;5055970;28;19912;-71
2022/12/07 02:47:36;;;;;;;;;;;27.30;88.00;;;;;;5054823;28;19913;-68
2022/12/07 02:50:06;;;;;;;;;;;27.10;90.30;;;;;;5053657;28;19936;-67
2022/12/07 02:52:33;;;;;;;;;;;27.00;90.40;;;;;;5056269;28;19952;-72
2022/12/07 02:55:00;;;;;;;;;;;26.90;90.10;;;;;;5056544;28;20078;-68
2022/12/07 02:57:26;;;;;;;;;;;26.70;90.20;;;;;;5058332;28;20007;-72
2022/12/07 03:00:02;;;;;;;;;;;26.60;90.80;;;;;;5055392;28;20358;-70
2022/12/07 03:02:38;;;;;;;;;;;26.60;90.80;;;;;;5057496;28;20277;-69
2022/12/07 03:05:05;;;;;;;;;;;26.60;91.00;;;;;;5056275;28;19917;-67
2022/12/07 03:07:50;;;;;;;;;;;26.50;91.10;;;;;;5056270;28;19909;-69
2022/12/07 03:10:19;;;;;;;;;;;26.50;90.50;;;;;;5037660;28;19962;-68
2022/12/07 03:12:57;;;;;;;;;;;26.40;90.40;;;;;;5036465;28;19999;-71
2022/12/07 03:15:31;;;;;;;;;;;26.20;90.60;;;;;;5036910;28;19963;-68
2022/12/07 03:17:59;;;;;;;;;;;26.20;90.60;;;;;;5033944;28;19904;-67
2022/12/07 03:20:26;;;;;;;;;;;26.10;90.70;;;;;;5037210;28;19924;-70
2022/12/07 03:22:54;;;;;;;;;;;26.20;90.40;;;;;;5035841;28;20599;-68
2022/12/07 03:25:21;;;;;;;;;;;26.20;90.50;;;;;;5036599;28;19966;-69
2022/12/07 03:27:56;;;;;;;;;;;26.40;90.60;;;;;;5034472;28;19920;-69
2022/12/07 03:30:32;;;;;;;;;;;26.60;91.10;;;;;;5035998;28;19935;-66
2022/12/07 03:33:10;;;;;;;;;;;26.60;91.00;;;;;;5036209;28;19919;-67
2022/12/07 03:35:48;;;;;;;;;;;26.60;90.60;;;;;;5035996;28;19956;-68
2022/12/07 03:38:25;;;;;;;;;;;26.60;90.70;;;;;;5035994;28;19980;-74
2022/12/07 03:41:04;;;;;;;;;;;26.60;91.00;;;;;;5035284;28;20398;-68
2022/12/07 03:43:31;;;;;;;;;;;26.50;91.20;;;;;;5036642;28;19919;-69
2022/12/07 03:46:07;;;;;;;;;;;26.40;91.40;;;;;;5035240;28;19913;-70
2022/12/07 03:48:56;;;;;;;;;;;26.40;91.40;;;;;;5036836;28;20515;-70
2022/12/07 03:51:26;;;;;;;;;;;26.60;91.70;;;;;;5035637;28;20294;-69
2022/12/07 03:53:57;;;;;;;;;;;26.70;91.70;;;;;;5035242;28;20008;-70
2022/12/07 03:56:24;;;;;;;;;;;26.90;90.90;;;;;;5036448;28;19931;-69
2022/12/07 03:58:51;;;;;;;;;;;26.90;90.70;;;;;;5035009;28;19967;-67
2022/12/07 04:01:18;;;;;;;;;;;27.00;90.60;;;;;;5035282;28;19913;-69
2022/12/07 04:03:45;;;;;;;;;;;27.00;90.60;;;;;;5035296;28;20007;-68
2022/12/07 04:06:12;;;;;;;;;;;26.90;91.00;;;;;;5036561;28;19909;-66
2022/12/07 04:08:38;;;;;;;;;;;26.60;90.60;;;;;;5035921;28;19913;-68
2022/12/07 04:11:05;;;;;;;;;;;26.40;90.40;;;;;;5034770;28;19916;-66
2022/12/07 04:14:18;;;;;;;;;;;26.30;90.20;;;;;;5035053;28;20443;-65
2022/12/07 04:16:18;;;;;;;;;;;26.20;90.00;;;;;;5040832;28;19908;-67
2022/12/07 04:18:45;;;;;;;;;;;26.20;89.20;;;;;;5048943;28;20018;-68
2022/12/07 04:21:11;;;;;;;;;;;26.00;85.80;;;;;;5038384;28;19913;-70
2022/12/07 04:23:38;;;;;;;;;;;26.00;82.70;;;;;;5036862;28;20059;-73
2022/12/07 04:26:05;;;;;;;;;;;26.00;81.10;;;;;;5033389;28;19921;-69
2022/12/07 04:28:31;;;;;;;;;;;26.10;67.60;;;;;;5043452;28;19905;-67
2022/12/07 04:30:58;;;;;;;;;;;26.20;66.10;;;;;;5053757;28;19923;-67
2022/12/07 04:33:25;;;;;;;;;;;26.30;64.80;;;;;;5055328;28;20639;-68
2022/12/07 04:35:51;;;;;;;;;;;26.50;60.30;;;;;;5041220;28;19996;-68
2022/12/07 04:38:18;;;;;;;;;;;26.60;58.40;;;;;;5038258;28;20199;-66
2022/12/07 04:40:44;;;;;;;;;;;26.70;53.70;;;;;;5048435;28;19985;-68
2022/12/07 04:43:11;;;;;;;;;;;26.80;52.60;;;;;;5054391;28;20471;-70
2022/12/07 04:45:38;;;;;;;;;;;26.80;53.30;;;;;;5054262;28;20383;-68
2022/12/07 04:48:04;;;;;;;;;;;26.90;51.10;;;;;;5053655;28;19954;-67
2022/12/07 04:50:31;;;;;;;;;;;26.90;52.20;;;;;;5054525;28;19913;-69
2022/12/07 04:52:58;;;;;;;;;;;27.00;51.60;;;;;;5053437;28;19916;-68
2022/12/07 04:55:24;;;;;;;;;;;27.20;50.70;;;;;;5053749;28;20061;-69
2022/12/07 04:57:51;;;;;;;;;;;27.20;50.50;;;;;;5049831;28;20474;-68
2022/12/07 05:00:18;;;;;;;;;;;27.30;51.50;;;;;;5039055;28;19964;-68
2022/12/07 05:02:44;;;;;;;;;;;27.20;49.10;;;;;;5048532;28;19913;-68
2022/12/07 05:05:11;;;;;;;;;;;27.20;50.50;;;;;;5045025;28;19919;-68
2022/12/07 05:07:38;;;;;;;;;;;27.20;51.20;;;;;;5050173;28;19916;-67
2022/12/07 05:10:05;;;;;;;;;;;27.30;49.90;;;;;;5051554;28;19913;-68
2022/12/07 05:12:31;;;;;;;;;;;27.30;50.30;;;;;;5055611;28;20006;-68
2022/12/07 05:14:58;;;;;;;;;;;27.40;50.60;;;;;;5046732;28;19999;-69
2022/12/07 05:17:25;;;;;;;;;;;27.30;50.70;;;;;;5042222;28;19917;-68
2022/12/07 05:19:51;;;;;;;;;;;27.20;50.60;;;;;;5049936;28;20324;-68
2022/12/07 05:22:18;;;;;;;;;;;27.10;51.70;;;;;;5041364;28;20690;-68
2022/12/07 05:24:44;;;;;;;;;;;27.00;51.50;;;;;;5034071;28;20007;-68
2022/12/07 05:27:11;;;;;;;;;;;26.90;51.20;;;;;;5047563;28;20010;-68
2022/12/07 05:29:38;;;;;;;;;;;26.80;51.60;;;;;;5054460;28;20421;-69
2022/12/07 05:32:04;;;;;;;;;;;26.70;51.30;;;;;;5054222;28;20516;-69
2022/12/07 05:34:31;;;;;;;;;;;26.60;52.40;;;;;;5053121;28;19974;-66
2022/12/07 05:36:58;;;;;;;;;;;26.50;51.10;;;;;;5064188;28;19951;-67
2022/12/07 05:39:24;;;;;;;;;;;26.50;51.70;;;;;;5053146;28;19916;-66
2022/12/07 05:44:36;;;;;;;;;;;26.40;51.60;;;;;;5039428;28;19939;-65
2022/12/07 05:47:02;;;;;;;;;;;26.40;52.00;;;;;;5045632;28;19917;-68
2022/12/07 05:49:29;;;;;;;;;;;26.30;52.30;;;;;;5052977;28;19919;-69
2022/12/07 05:51:56;;;;;;;;;;;26.30;52.70;;;;;;5046827;28;19921;-68
2022/12/07 05:54:22;;;;;;;;;;;26.20;52.40;;;;;;5039900;28;19966;-69
2022/12/07 05:56:49;;;;;;;;;;;26.10;52.60;;;;;;5042108;28;19912;-68
2022/12/07 05:59:26;;;;;;;;;;;26.10;52.60;;;;;;5056839;28;19959;-69
2022/12/07 06:01:57;;;;;;;;;;;26.10;52.30;;;;;;5050663;28;19913;-67
2022/12/07 06:04:25;;;;;;;;;;;26.00;53.30;;;;;;5044174;28;20385;-69
2022/12/07 06:06:52;;;;;;;;;;;26.00;52.30;;;;;;5049336;28;19916;-68
2022/12/07 06:09:20;;;;;;;;;;;26.00;53.20;;;;;;5057348;28;20309;-69
2022/12/07 06:14:31;;;;;;;;;;;26.00;53.30;;;;;;5058042;28;19967;-68
2022/12/07 06:16:58;;;;;;;;;;;25.90;53.50;;;;;;5057826;28;20016;-68
2022/12/07 06:19:25;;;;;;;;;;;25.90;53.30;;;;;;5056284;28;19920;-68
2022/12/07 06:21:52;;;;;;;;;;;25.90;53.60;;;;;;5048020;28;20344;-68
2022/12/07 06:24:19;;;;;;;;;;;25.80;53.80;;;;;;5038403;28;19943;-68
2022/12/07 06:26:45;;;;;;;;;;;25.70;54.60;;;;;;5048436;28;20365;-68
2022/12/07 06:29:12;;;;;;;;;;;25.80;54.50;;;;;;5057428;28;19920;-68
2022/12/07 06:31:39;;;;;;;;;;;25.80;54.90;;;;;;5051412;28;19912;-66
2022/12/07 06:34:17;;;;;;;;;;;25.70;55.40;;;;;;5050521;28;20341;-69
2022/12/07 06:36:44;;;;;;;;;;;25.70;55.70;;;;;;5047490;28;19920;-68
2022/12/07 06:39:10;;;;;;;;;;;25.60;56.10;;;;;;5057484;28;19965;-68
2022/12/07 06:41:37;;;;;;;;;;;25.60;59.10;;;;;;5050076;28;19913;-69
2022/12/07 06:44:05;;;;;;;;;;;25.60;60.10;;;;;;5057914;28;19909;-69
2022/12/07 06:46:32;;;;;;;;;;;25.60;61.10;;;;;;5054824;28;19912;-66
2022/12/07 06:48:58;;;;;;;;;;;25.70;61.70;;;;;;5057936;28;20268;-67
2022/12/07 06:51:25;;;;;;;;;;;25.80;62.00;;;;;;5043294;28;19917;-68
2022/12/07 06:53:52;;;;;;;;;;;25.70;62.70;;;;;;5037880;28;19913;-69
2022/12/07 06:56:19;;;;;;;;;;;25.60;63.10;;;;;;5045142;28;20050;-69
2022/12/07 06:58:45;;;;;;;;;;;25.60;64.10;;;;;;5047412;28;19909;-68
2022/12/07 07:01:13;;;;;;;;;;;25.50;64.40;;;;;;5045613;28;20007;-68
2022/12/07 07:03:39;;;;;;;;;;;25.40;65.00;;;;;;5036223;28;20487;-68
2022/12/07 07:06:07;;;;;;;;;;;25.30;65.30;;;;;;5037971;28;19913;-68
2022/12/07 07:08:34;;;;;;;;;;;25.20;65.50;;;;;;5054339;28;19919;-66
2022/12/07 07:11:01;;;;;;;;;;;25.20;65.50;;;;;;5045927;28;20266;-69
2022/12/07 07:13:28;;;;;;;;;;;25.10;65.80;;;;;;5034011;28;20378;-66
2022/12/07 07:15:55;;;;;;;;;;;25.10;66.50;;;;;;5040357;28;19912;-67
2022/12/07 07:18:21;;;;;;;;;;;25.00;66.70;;;;;;5053279;28;19979;-68
2022/12/07 07:20:48;;;;;;;;;;;24.90;67.10;;;;;;5052364;28;19927;-68
2022/12/07 07:23:15;;;;;;;;;;;24.90;67.40;;;;;;5055995;28;19920;-69
2022/12/07 07:25:42;;;;;;;;;;;24.80;67.90;;;;;;5055117;28;19964;-68
2022/12/07 07:28:08;;;;;;;;;;;24.80;68.00;;;;;;5056955;28;19925;-68
2022/12/07 07:30:35;;;;;;;;;;;24.80;68.10;;;;;;5053221;28;20281;-68
2022/12/07 07:33:03;;;;;;;;;;;24.70;67.90;;;;;;5056686;28;19908;-68
2022/12/07 07:35:30;;;;;;;;;;;24.70;68.20;;;;;;5055723;28;20353;-68
2022/12/07 07:37:57;;;;;;;;;;;24.70;68.40;;;;;;5056377;28;19969;-69
2022/12/07 07:40:24;;;;;;;;;;;24.60;68.80;;;;;;5053458;28;20532;-70
2022/12/07 07:42:51;;;;;;;;;;;24.60;69.00;;;;;;5046016;28;19919;-69
2022/12/07 07:45:18;;;;;;;;;;;24.60;69.60;;;;;;5035814;28;19920;-68
2022/12/07 07:47:45;;;;;;;;;;;24.60;69.90;;;;;;5047909;28;19909;-65
2022/12/07 07:50:12;;;;;;;;;;;24.50;70.10;;;;;;5053213;28;20055;-65
2022/12/07 07:52:39;;;;;;;;;;;24.50;70.40;;;;;;5052847;28;19909;-66
2022/12/07 07:55:08;;;;;;;;;;;24.40;70.80;;;;;;5056466;28;20364;-69
2022/12/07 07:57:35;;;;;;;;;;;24.30;70.80;;;;;;5052636;28;20045;-68
2022/12/07 08:00:07;;;;;;;;;;;24.40;71.70;;;;;;5055111;28;19924;-67
2022/12/07 08:02:34;;;;;;;;;;;24.30;71.30;;;;;;5055720;28;19912;-68
2022/12/07 08:05:00;;;;;;;;;;;24.20;71.70;;;;;;5054304;28;19920;-68
2022/12/07 08:07:28;;;;;;;;;;;24.20;72.10;;;;;;5043425;28;19908;-67
2022/12/07 08:09:54;;;;;;;;;;;24.20;72.20;;;;;;5050186;28;20335;-68
2022/12/07 08:12:21;;;;;;;;;;;24.20;72.40;;;;;;5055505;28;19912;-67
2022/12/07 08:14:48;;;;;;;;;;;24.10;72.60;;;;;;5056009;28;19931;-67
2022/12/07 08:17:15;;;;;;;;;;;24.10;72.90;;;;;;5053101;28;19915;-69
2022/12/07 08:19:42;;;;;;;;;;;24.10;72.80;;;;;;5054711;28;19916;-68
2022/12/07 08:22:08;;;;;;;;;;;24.00;72.90;;;;;;5051418;28;20037;-70
2022/12/07 08:24:36;;;;;;;;;;;24.00;72.80;;;;;;5056311;28;19969;-68
2022/12/07 08:27:03;;;;;;;;;;;24.00;73.30;;;;;;5044659;28;20411;-67
2022/12/07 08:29:29;;;;;;;;;;;24.00;73.40;;;;;;5045891;28;19927;-67
2022/12/07 08:31:56;;;;;;;;;;;24.00;73.60;;;;;;5052107;28;19987;-70
2022/12/07 08:34:23;;;;;;;;;;;23.90;73.80;;;;;;5054580;28;20365;-67
2022/12/07 08:36:49;;;;;;;;;;;23.90;73.80;;;;;;5055948;28;19912;-68
2022/12/07 08:39:16;;;;;;;;;;;23.90;74.10;;;;;;5053091;28;20007;-69
2022/12/07 08:41:43;;;;;;;;;;;23.90;74.00;;;;;;5039888;28;20015;-68
2022/12/07 08:44:09;;;;;;;;;;;23.90;74.30;;;;;;5048628;28;19944;-67
2022/12/07 08:46:41;;;;;;;;;;;23.80;74.40;;;;;;5055569;28;19915;-68
2022/12/07 08:49:11;;;;;;;;;;;23.80;74.60;;;;;;5053647;28;20364;-67
2022/12/07 08:51:38;;;;;;;;;;;23.80;74.60;;;;;;5055918;28;20296;-67
2022/12/07 08:54:07;;;;;;;;;;;23.80;75.00;;;;;;5047598;28;19919;-65
2022/12/07 08:56:34;;;;;;;;;;;23.70;75.00;;;;;;5037372;28;20603;-68
2022/12/07 08:59:00;;;;;;;;;;;23.70;75.10;;;;;;5032862;28;19917;-67
2022/12/07 09:01:28;;;;;;;;;;;23.70;75.30;;;;;;5042366;28;19932;-68
2022/12/07 09:03:55;;;;;;;;;;;23.70;75.40;;;;;;5043565;28;19919;-68
2022/12/07 09:06:21;;;;;;;;;;;23.60;76.10;;;;;;5042564;28;19966;-67
2022/12/07 09:08:50;;;;;;;;;;;23.60;75.70;;;;;;5047342;28;19944;-67
2022/12/07 09:11:17;;;;;;;;;;;23.50;75.50;;;;;;5041682;28;20583;-68
2022/12/07 09:13:44;;;;;;;;;;;23.50;76.50;;;;;;5054823;28;19912;-69
2022/12/07 09:16:10;;;;;;;;;;;23.50;76.10;;;;;;5040365;28;20338;-68
2022/12/07 09:18:38;;;;;;;;;;;23.50;76.00;;;;;;5037190;28;19922;-68
2022/12/07 09:21:04;;;;;;;;;;;23.40;75.70;;;;;;5041210;28;19923;-68
2022/12/07 09:23:31;;;;;;;;;;;23.40;76.10;;;;;;5032210;28;19932;-68
2022/12/07 09:26:01;;;;;;;;;;;23.40;76.10;;;;;;5046077;28;20295;-68
2022/12/07 09:28:28;;;;;;;;;;;23.40;76.50;;;;;;5052203;28;19966;-69
2022/12/07 09:30:55;;;;;;;;;;;23.40;76.80;;;;;;5053535;28;19958;-67
2022/12/07 09:33:21;;;;;;;;;;;23.40;76.60;;;;;;5054315;28;19912;-68
2022/12/07 09:35:49;;;;;;;;;;;23.30;76.50;;;;;;5043809;28;19920;-68
2022/12/07 09:38:16;;;;;;;;;;;23.30;77.00;;;;;;5057570;28;19962;-67
2022/12/07 09:40:45;;;;;;;;;;;23.30;76.90;;;;;;5051838;28;20292;-67
2022/12/07 09:43:17;;;;;;;;;;;23.30;77.10;;;;;;5037955;28;19920;-68
2022/12/07 09:45:44;;;;;;;;;;;23.30;76.90;;;;;;5056039;28;19923;-67
2022/12/07 09:48:19;;;;;;;;;;;23.30;77.00;;;;;;5056518;28;19909;-68
2022/12/07 09:50:47;;;;;;;;;;;23.20;77.00;;;;;;5058577;28;19908;-67
2022/12/07 09:53:17;;;;;;;;;;;23.30;77.30;;;;;;5048212;28;19916;-68
2022/12/07 09:55:48;;;;;;;;;;;23.20;77.30;;;;;;5058369;28;20315;-67
2022/12/07 09:58:23;;;;;;;;;;;23.20;77.50;;;;;;5057735;28;19908;-68
2022/12/07 10:00:51;;;;;;;;;;;23.20;77.80;;;;;;5054189;28;19921;-68
2022/12/07 10:03:17;;;;;;;;;;;23.10;78.20;;;;;;5054103;28;20725;-68
2022/12/07 10:05:48;;;;;;;;;;;23.10;78.20;;;;;;5055357;28;19947;-66
2022/12/07 10:08:17;;;;;;;;;;;23.10;78.20;;;;;;5053816;28;20455;-68
2022/12/07 10:10:45;;;;;;;;;;;23.00;79.00;;;;;;5036932;28;19912;-68
2022/12/07 10:13:19;;;;;;;;;;;23.00;78.50;;;;;;5048893;28;19923;-69
2022/12/07 10:15:56;;;;;;;;;;;23.00;78.50;;;;;;5042348;28;19923;-68
2022/12/07 10:18:26;;;;;;;;;;;22.90;78.50;;;;;;5053777;28;19919;-69
2022/12/07 10:21:00;;;;;;;;;;;22.90;79.20;;;;;;5048571;28;20277;-68
2022/12/07 10:23:27;;;;;;;;;;;22.90;78.70;;;;;;5056596;28;20380;-69
2022/12/07 10:25:54;;;;;;;;;;;22.80;79.10;;;;;;5058840;28;19974;-69
2022/12/07 10:28:21;;;;;;;;;;;22.80;79.30;;;;;;5054768;28;19923;-67
2022/12/07 10:30:53;;;;;;;;;;;22.80;79.80;;;;;;5045225;28;19967;-69
2022/12/07 10:33:58;;;;;;;;;;;22.80;80.00;;;;;;5046919;28;20030;-68
2022/12/07 10:36:27;;;;;;;;;;;22.70;80.30;;;;;;5014704;28;19932;-69
2022/12/07 10:38:53;;;;;;;;;;;22.70;80.90;;;;;;5014170;28;19909;-68
2022/12/07 10:41:20;;;;;;;;;;;22.70;80.90;;;;;;5030433;28;20368;-68
2022/12/07 10:43:48;;;;;;;;;;;22.70;80.70;;;;;;5044360;28;19940;-67
2022/12/07 10:46:24;;;;;;;;;;;22.70;80.60;;;;;;5047471;28;19936;-67
2022/12/07 10:49:00;;;;;;;;;;;22.70;80.60;;;;;;5044395;28;20174;-70
2022/12/07 10:51:31;;;;;;;;;;;22.70;80.40;;;;;;5052518;28;19913;-69
2022/12/07 10:54:01;;;;;;;;;;;22.70;80.50;;;;;;5042106;28;19915;-69
2022/12/07 10:56:46;;;;;;;;;;;22.70;80.50;;;;;;5038108;28;19960;-67
2022/12/07 10:59:15;;;;;;;;;;;22.70;80.70;;;;;;5037571;28;19913;-67
2022/12/07 11:01:51;;;;;;;;;;;22.70;80.70;;;;;;5036294;28;19964;-67
2022/12/07 11:04:43;;;;;;;;;;;22.70;80.80;;;;;;5037972;28;19917;-68
2022/12/07 11:07:13;;;;;;;;;;;22.60;80.70;;;;;;5036788;28;19913;-67
2022/12/07 11:09:58;;;;;;;;;;;22.60;81.10;;;;;;5035841;28;19917;-67
2022/12/07 11:12:42;;;;;;;;;;;22.50;81.00;;;;;;5036938;28;20380;-66
2022/12/07 11:15:22;;;;;;;;;;;22.60;81.20;;;;;;5036960;28;19913;-67
2022/12/07 11:18:04;;;;;;;;;;;22.60;81.20;;;;;;5035941;28;20349;-66
2022/12/07 11:20:49;;;;;;;;;;;22.50;81.10;;;;;;5037429;28;19963;-68
2022/12/07 11:23:40;;;;;;;;;;;22.50;81.10;;;;;;5037095;28;19909;-66
2022/12/07 11:26:16;;;;;;;;;;;22.50;80.90;;;;;;5036996;28;20023;-66
2022/12/07 11:29:01;;;;;;;;;;;22.50;81.10;;;;;;5035772;28;19987;-66
2022/12/07 11:31:45;;;;;;;;;;;22.50;80.90;;;;;;5036960;28;19913;-66
2022/12/07 11:34:30;;;;;;;;;;;22.50;81.00;;;;;;5036600;28;19943;-66
2022/12/07 11:36:57;;;;;;;;;;;22.50;80.90;;;;;;5039763;28;19958;-67
2022/12/07 11:39:23;;;;;;;;;;;22.50;80.80;;;;;;5037451;28;20344;-68
2022/12/07 11:41:55;;;;;;;;;;;22.50;80.40;;;;;;5035930;28;19909;-67
2022/12/07 11:44:36;;;;;;;;;;;22.50;80.50;;;;;;5051345;28;19915;-67
2022/12/07 11:47:03;;;;;;;;;;;22.50;80.20;;;;;;5054886;28;19912;-66
2022/12/07 11:49:51;;;;;;;;;;;22.50;80.10;;;;;;5039629;28;20012;-66
2022/12/07 11:52:26;;;;;;;;;;;22.60;79.80;;;;;;5036091;28;19920;-67
2022/12/07 11:54:53;;;;;;;;;;;22.50;79.30;;;;;;5036478;28;19931;-66
2022/12/07 11:57:35;;;;;;;;;;;22.60;79.40;;;;;;5036095;28;19932;-68
2022/12/07 12:00:03;;;;;;;;;;;22.60;79.60;;;;;;5034721;28;20012;-69
2022/12/07 12:02:42;;;;;;;;;;;22.50;79.70;;;;;;5036596;28;19912;-68
2022/12/07 12:05:14;;;;;;;;;;;22.50;80.10;;;;;;5035155;28;19963;-68
2022/12/07 12:07:42;;;;;;;;;;;22.40;79.80;;;;;;5054804;28;19916;-68
2022/12/07 12:10:15;;;;;;;;;;;22.40;80.20;;;;;;5055293;28;19912;-67
2022/12/07 12:12:52;;;;;;;;;;;22.40;80.30;;;;;;5056136;28;19905;-67
2022/12/07 12:15:22;;;;;;;;;;;22.40;80.80;;;;;;5055855;28;19962;-69
2022/12/07 12:18:07;;;;;;;;;;;22.30;80.50;;;;;;5055013;28;19908;-69
2022/12/07 12:20:41;;;;;;;;;;;22.30;80.60;;;;;;5055311;28;20019;-68
2022/12/07 12:23:14;;;;;;;;;;;22.30;81.00;;;;;;5054958;28;19913;-67
2022/12/07 12:25:43;;;;;;;;;;;22.20;80.90;;;;;;5055998;28;20388;-67
2022/12/07 12:28:39;;;;;;;;;;;22.20;81.20;;;;;;5053530;28;20597;-68
2022/12/07 12:31:14;;;;;;;;;;;22.20;81.20;;;;;;5049827;28;19913;-67
2022/12/07 12:33:48;;;;;;;;;;;22.20;81.50;;;;;;5056414;28;19915;-68
2022/12/07 12:36:18;;;;;;;;;;;22.10;82.00;;;;;;5055527;28;20377;-68
2022/12/07 12:38:53;;;;;;;;;;;22.10;81.90;;;;;;5055874;28;20011;-67
2022/12/07 12:44:19;;;;;;;;;;;22.00;82.40;;;;;;5055484;28;19908;-68
2022/12/07 12:46:57;;;;;;;;;;;22.00;82.40;;;;;;5056460;28;20225;-67
2022/12/07 12:49:24;;;;;;;;;;;22.00;82.50;;;;;;5055457;28;19917;-68
2022/12/07 12:51:56;;;;;;;;;;;21.90;82.70;;;;;;5055524;28;19909;-68
2022/12/07 12:54:32;;;;;;;;;;;21.90;82.80;;;;;;5056014;28;20377;-67
2022/12/07 12:57:01;;;;;;;;;;;21.90;82.00;;;;;;5054609;28;20025;-68
2022/12/07 12:59:29;;;;;;;;;;;21.90;82.30;;;;;;5054751;28;19920;-68
2022/12/07 13:02:16;;;;;;;;;;;21.90;81.80;;;;;;5054421;28;20182;-68
2022/12/07 13:04:49;;;;;;;;;;;21.90;81.80;;;;;;5052739;28;19913;-69
2022/12/07 13:07:35;;;;;;;;;;;21.90;82.00;;;;;;5054812;28;19915;-68
2022/12/07 13:10:03;;;;;;;;;;;21.90;82.20;;;;;;5058209;28;19913;-65
2022/12/07 13:12:29;;;;;;;;;;;21.80;83.10;;;;;;5059153;28;20099;-68
2022/12/07 13:14:58;;;;;;;;;;;21.80;83.70;;;;;;5053292;28;19913;-68
2022/12/07 13:17:34;;;;;;;;;;;21.80;83.50;;;;;;5039456;28;19913;-68
2022/12/07 13:20:04;;;;;;;;;;;21.70;84.10;;;;;;5038160;28;19925;-67
2022/12/07 13:22:31;;;;;;;;;;;21.60;84.60;;;;;;5038765;28;20665;-67
2022/12/07 13:25:12;;;;;;;;;;;21.50;84.80;;;;;;5038814;28;20004;-66
2022/12/07 13:27:40;;;;;;;;;;;21.50;85.40;;;;;;5038112;28;19917;-66
2022/12/07 13:30:14;;;;;;;;;;;21.40;85.40;;;;;;5038189;28;19913;-66
2022/12/07 13:32:40;;;;;;;;;;;21.40;85.80;;;;;;5039417;28;19917;-66
2022/12/07 13:35:25;;;;;;;;;;;21.30;85.80;;;;;;5052626;28;20329;-66
2022/12/07 13:37:52;;;;;;;;;;;21.30;85.80;;;;;;5059088;28;20388;-65
2022/12/07 13:40:20;;;;;;;;;;;21.20;86.20;;;;;;5057780;28;19921;-68
2022/12/07 13:42:46;;;;;;;;;;;21.30;85.70;;;;;;5058179;28;19924;-69
2022/12/07 13:45:48;;;;;;;;;;;21.20;86.20;;;;;;5055831;28;19934;-66
2022/12/07 13:48:34;;;;;;;;;;;21.20;86.10;;;;;;5058031;28;19920;-69
2022/12/07 13:51:02;;;;;;;;;;;21.20;85.70;;;;;;5058102;28;19908;-68
2022/12/07 13:53:30;;;;;;;;;;;21.10;85.70;;;;;;5058717;28;19915;-68
2022/12/07 13:56:01;;;;;;;;;;;21.10;86.00;;;;;;5058821;28;20439;-67
2022/12/07 13:58:30;;;;;;;;;;;21.00;85.90;;;;;;5059255;28;19913;-68
2022/12/07 14:00:57;;;;;;;;;;;20.90;85.90;;;;;;5058643;28;19916;-67
2022/12/07 14:03:41;;;;;;;;;;;20.90;85.90;;;;;;5058418;28;19912;-67
2022/12/07 14:06:08;;;;;;;;;;;20.90;86.10;;;;;;5057178;28;19931;-68
2022/12/07 14:08:35;;;;;;;;;;;20.90;85.90;;;;;;5058899;28;19916;-67
2022/12/07 14:11:01;;;;;;;;;;;20.90;86.20;;;;;;5058649;28;19908;-67
2022/12/07 14:13:41;;;;;;;;;;;20.90;86.20;;;;;;5058358;28;19990;-68
2022/12/07 14:16:28;;;;;;;;;;;20.90;86.20;;;;;;5057036;28;19912;-68
2022/12/07 14:18:56;;;;;;;;;;;20.90;86.40;;;;;;5057537;28;20231;-68
2022/12/07 14:21:27;;;;;;;;;;;20.90;86.60;;;;;;5057406;28;19977;-67
2022/12/07 14:24:09;;;;;;;;;;;21.00;86.80;;;;;;5057408;28;19920;-67
2022/12/07 14:26:35;;;;;;;;;;;20.80;86.90;;;;;;5059016;28;19916;-68
2022/12/07 14:29:20;;;;;;;;;;;20.90;87.10;;;;;;5058423;28;19913;-68
2022/12/07 14:31:47;;;;;;;;;;;20.90;87.30;;;;;;5056423;28;19909;-67
2022/12/07 14:34:13;;;;;;;;;;;20.80;87.20;;;;;;5056786;28;20307;-67
2022/12/07 14:36:40;;;;;;;;;;;20.80;87.40;;;;;;5058044;28;19974;-68
2022/12/07 14:39:06;;;;;;;;;;;20.80;87.70;;;;;;5057338;28;20403;-68
2022/12/07 14:41:51;;;;;;;;;;;20.80;87.90;;;;;;5058033;28;19974;-68